Aviation Digital Data Service (ADDS)

Output produced by METARs form (2006 UTC 19 March 2018)
found at http://aviationweather.gov/adds/metars/
METAR text: KTAZ 191955Z AUTO 09012G18KT 10SM BKN070 OVC085 13/M02 A2964 RMK AO2 T01321016
Conditions at: KTAZ (TAYLORVILLE , IL, US) observed 1955 UTC 19 March 2018
Temperature: 13.2°C (56°F)
Dewpoint: -1.6°C (29°F) [RH = 36%]
Pressure (altimeter): 29.64 inches Hg (1003.8 mb)
Winds: from the E (90 degrees) at 14 MPH (12 knots; 6.2 m/s)
gusting to 21 MPH (18 knots; 9.4 m/s)
Visibility: 10 or more miles (16+ km)
Ceiling: 7000 feet AGL
Clouds: broken clouds at 7000 feet AGL
overcast cloud deck at 8500 feet AGL
Weather: automated observation with no human augmentation;
there may or may not be significant weather present at this time